Time;durP1;ratioP1;P1;durP2;ratioP2;P2;SDS_P1;SDS_P2;PMS_P1;PMS_P2;Temp;Humidity;BMP_temperature;BMP_pressure;BME280_temperature;BME280_humidity;BME280_pressure;Samples;Min_cycle;Max_cycle;Signal;HPM_P1;HPM_P2
2023/03/04 00:01:44;;;;;;;16.48;2.40;;;;;;;;;;4838894;29;20064;-79
2023/03/04 00:04:10;;;;;;;17.92;2.20;;;;;;;;;;4836909;29;20745;-78
2023/03/04 00:06:36;;;;;;;11.05;2.47;;;;;;;;;;4849797;29;20045;-79
2023/03/04 00:09:03;;;;;;;17.48;2.00;;;;;;;;;;4849797;29;20065;-78
2023/03/04 00:11:29;;;;;;;12.48;1.83;;;;;;;;;;4839423;29;20057;-78
2023/03/04 00:13:56;;;;;;;11.95;1.65;;;;;;;;;;4837955;29;20053;-77
2023/03/04 00:16:26;;;;;;;14.15;2.20;;;;;;;;;;4835850;29;20053;-78
2023/03/04 00:18:52;;;;;;;13.35;2.10;;;;;;;;;;4854505;29;20596;-79
2023/03/04 00:21:18;;;;;;;14.98;2.67;;;;;;;;;;4838660;29;20060;-78
2023/03/04 00:23:45;;;;;;;17.23;2.58;;;;;;;;;;4835879;29;20049;-78
2023/03/04 00:26:12;;;;;;;17.33;2.08;;;;;;;;;;4837794;29;20038;-79
2023/03/04 00:28:38;;;;;;;20.55;2.72;;;;;;;;;;4832316;29;20068;-79
2023/03/04 00:31:05;;;;;;;21.08;2.83;;;;;;;;;;4847044;29;20078;-78
2023/03/04 00:33:34;;;;;;;14.68;2.40;;;;;;;;;;4849332;29;20053;-78
2023/03/04 00:36:00;;;;;;;18.40;2.28;;;;;;;;;;4852311;29;20081;-78
2023/03/04 00:38:26;;;;;;;29.15;5.03;;;;;;;;;;4847442;29;20052;-78
2023/03/04 00:40:53;;;;;;;20.85;2.63;;;;;;;;;;4848860;29;20083;-78
2023/03/04 00:43:19;;;;;;;19.30;2.75;;;;;;;;;;4834116;29;20140;-78
2023/03/04 00:45:46;;;;;;;17.17;2.28;;;;;;;;;;4842959;29;20055;-78
2023/03/04 00:48:12;;;;;;;19.88;2.95;;;;;;;;;;4846124;29;21304;-79
2023/03/04 00:50:38;;;;;;;20.67;3.55;;;;;;;;;;4846523;29;20706;-78
2023/03/04 00:53:04;;;;;;;19.20;2.65;;;;;;;;;;4862010;29;20096;-78
2023/03/04 00:55:30;;;;;;;12.75;2.13;;;;;;;;;;4853851;29;20038;-78
2023/03/04 00:57:56;;;;;;;13.45;2.85;;;;;;;;;;4836512;29;20135;-78
2023/03/04 01:00:23;;;;;;;21.85;2.75;;;;;;;;;;4832723;29;20049;-78
2023/03/04 01:02:49;;;;;;;13.55;2.47;;;;;;;;;;4841978;29;20056;-78
2023/03/04 01:05:15;;;;;;;10.90;1.90;;;;;;;;;;4851433;29;20049;-78
2023/03/04 01:07:41;;;;;;;16.13;2.50;;;;;;;;;;4838209;29;20490;-78
2023/03/04 01:10:08;;;;;;;13.60;2.35;;;;;;;;;;4852668;29;20053;-78
2023/03/04 01:12:34;;;;;;;20.02;2.25;;;;;;;;;;4838905;29;20100;-79
2023/03/04 01:15:00;;;;;;;20.45;2.67;;;;;;;;;;4849555;29;20405;-79
2023/03/04 01:17:26;;;;;;;10.18;2.03;;;;;;;;;;4838311;29;20056;-79
2023/03/04 01:19:52;;;;;;;17.08;2.00;;;;;;;;;;4837302;29;20053;-79
2023/03/04 01:22:19;;;;;;;12.43;1.95;;;;;;;;;;4850853;29;20049;-78
2023/03/04 01:24:45;;;;;;;17.85;2.42;;;;;;;;;;4850763;29;20041;-78
2023/03/04 01:27:11;;;;;;;17.13;2.50;;;;;;;;;;4848343;29;20048;-79
2023/03/04 01:29:37;;;;;;;15.80;2.25;;;;;;;;;;4849914;29;20092;-79
2023/03/04 01:32:04;;;;;;;12.30;2.53;;;;;;;;;;4857299;29;20053;-79
2023/03/04 01:34:30;;;;;;;12.75;2.22;;;;;;;;;;4851449;29;20049;-79
2023/03/04 01:36:56;;;;;;;8.40;1.38;;;;;;;;;;4849775;29;20402;-79
2023/03/04 01:39:22;;;;;;;14.48;1.65;;;;;;;;;;4840103;29;20268;-79
2023/03/04 01:41:48;;;;;;;13.68;2.53;;;;;;;;;;4849261;29;20045;-78
2023/03/04 01:44:16;;;;;;;11.45;2.00;;;;;;;;;;4849557;29;20063;-78
2023/03/04 01:46:46;;;;;;;14.32;1.83;;;;;;;;;;4856105;29;20053;-78
2023/03/04 01:49:14;;;;;;;15.95;3.38;;;;;;;;;;4833472;29;20629;-78
2023/03/04 01:51:41;;;;;;;15.50;2.13;;;;;;;;;;4837843;29;20045;-79
2023/03/04 01:54:08;;;;;;;16.15;2.78;;;;;;;;;;4849763;29;20127;-79
2023/03/04 01:56:36;;;;;;;18.35;2.53;;;;;;;;;;4838644;29;20128;-79
2023/03/04 01:59:29;;;;;;;10.95;1.88;;;;;;;;;;4850631;29;20049;-79
2023/03/04 02:01:58;;;;;;;17.73;2.00;;;;;;;;;;4849901;29;20069;-78
2023/03/04 02:04:28;;;;;;;13.90;1.95;;;;;;;;;;4852010;29;20064;-78
2023/03/04 02:06:55;;;;;;;15.82;2.45;;;;;;;;;;4849312;29;20056;-77
2023/03/04 02:09:21;;;;;;;14.82;2.08;;;;;;;;;;4836727;29;20049;-78
2023/03/04 02:11:48;;;;;;;18.42;2.10;;;;;;;;;;4852246;29;20048;-78
2023/03/04 02:14:17;;;;;;;19.40;3.00;;;;;;;;;;4848613;29;20044;-79
2023/03/04 02:16:44;;;;;;;13.68;2.00;;;;;;;;;;4849520;29;20477;-79
2023/03/04 02:19:27;;;;;;;18.15;2.47;;;;;;;;;;4853475;29;20053;-79
2023/03/04 02:21:53;;;;;;;9.95;1.63;;;;;;;;;;4835514;29;20041;-79
2023/03/04 02:24:25;;;;;;;13.25;1.73;;;;;;;;;;4848001;29;20775;-78
2023/03/04 02:26:51;;;;;;;14.10;2.60;;;;;;;;;;4839759;29;20045;-79
2023/03/04 02:29:17;;;;;;;10.05;1.85;;;;;;;;;;4849234;29;20140;-79
2023/03/04 02:31:45;;;;;;;11.35;2.00;;;;;;;;;;4840125;29;20045;-79
2023/03/04 02:34:13;;;;;;;16.88;1.77;;;;;;;;;;4840063;29;20107;-79
2023/03/04 02:36:39;;;;;;;12.10;1.70;;;;;;;;;;4837211;29;20076;-80
2023/03/04 02:39:12;;;;;;;14.40;1.75;;;;;;;;;;4851653;29;20060;-78
2023/03/04 02:41:38;;;;;;;12.00;1.90;;;;;;;;;;4849560;29;20072;-79
2023/03/04 02:44:14;;;;;;;17.27;1.40;;;;;;;;;;4856992;29;20114;-78
2023/03/04 02:46:40;;;;;;;10.57;1.88;;;;;;;;;;4840811;29;20446;-79
2023/03/04 02:49:07;;;;;;;21.60;3.47;;;;;;;;;;4852883;29;20061;-79
2023/03/04 02:51:33;;;;;;;12.15;2.30;;;;;;;;;;4854876;29;20109;-79
2023/03/04 02:53:59;;;;;;;9.55;1.60;;;;;;;;;;4838583;29;20048;-79
2023/03/04 02:56:25;;;;;;;15.00;2.17;;;;;;;;;;4851749;29;21145;-79
2023/03/04 02:58:51;;;;;;;8.80;2.03;;;;;;;;;;4853440;29;20086;-79
2023/03/04 03:01:17;;;;;;;13.65;2.20;;;;;;;;;;4854817;29;20065;-79
2023/03/04 03:03:43;;;;;;;12.93;2.13;;;;;;;;;;4855262;29;20044;-79
2023/03/04 03:06:09;;;;;;;16.05;3.08;;;;;;;;;;4854309;29;23649;-79
2023/03/04 03:08:35;;;;;;;8.50;1.58;;;;;;;;;;4854876;29;20052;-79
2023/03/04 03:11:01;;;;;;;13.60;2.00;;;;;;;;;;4855241;29;20048;-78
2023/03/04 03:13:27;;;;;;;18.60;2.22;;;;;;;;;;4853664;29;20112;-78
2023/03/04 03:15:54;;;;;;;22.15;2.33;;;;;;;;;;4850893;29;20086;-78
2023/03/04 03:18:20;;;;;;;11.95;1.85;;;;;;;;;;4853112;29;20044;-78
2023/03/04 03:20:46;;;;;;;14.45;3.30;;;;;;;;;;4850854;29;20052;-78
2023/03/04 03:23:12;;;;;;;19.90;3.55;;;;;;;;;;4843597;29;20124;-78
2023/03/04 03:25:41;;;;;;;8.88;1.90;;;;;;;;;;4850926;29;20045;-78
2023/03/04 03:28:08;;;;;;;9.95;2.13;;;;;;;;;;4849866;29;20048;-78
2023/03/04 03:30:37;;;;;;;18.17;2.17;;;;;;;;;;4835796;29;20053;-79
2023/03/04 03:33:03;;;;;;;16.73;2.97;;;;;;;;;;4837307;29;20067;-79
2023/03/04 03:35:29;;;;;;;13.10;2.05;;;;;;;;;;4852935;29;20049;-78
2023/03/04 03:37:55;;;;;;;10.63;2.13;;;;;;;;;;4852551;29;20064;-79
2023/03/04 03:40:21;;;;;;;14.80;2.08;;;;;;;;;;4836630;29;20259;-78
2023/03/04 03:42:47;;;;;;;11.98;1.80;;;;;;;;;;4857747;29;20044;-79
2023/03/04 03:45:13;;;;;;;9.75;1.63;;;;;;;;;;4825266;29;20048;-79
2023/03/04 03:47:39;;;;;;;18.83;3.25;;;;;;;;;;4843403;29;20072;-79
2023/03/04 03:50:06;;;;;;;16.83;2.03;;;;;;;;;;4830122;29;20067;-79
2023/03/04 03:52:32;;;;;;;17.73;2.47;;;;;;;;;;4843535;29;20052;-78
2023/03/04 03:55:00;;;;;;;6.07;1.60;;;;;;;;;;4819127;29;20116;-78
2023/03/04 03:57:27;;;;;;;17.20;2.10;;;;;;;;;;4852375;29;20060;-78
2023/03/04 03:59:53;;;;;;;16.95;2.33;;;;;;;;;;4847920;29;20048;-78
2023/03/04 04:02:19;;;;;;;14.90;2.63;;;;;;;;;;4861190;29;20056;-78
2023/03/04 04:04:45;;;;;;;11.60;1.35;;;;;;;;;;4843271;29;20043;-78
2023/03/04 04:07:13;;;;;;;10.02;1.73;;;;;;;;;;4849001;29;20053;-78
2023/03/04 04:09:40;;;;;;;15.63;2.03;;;;;;;;;;4850009;29;20049;-78
2023/03/04 04:12:06;;;;;;;8.30;1.20;;;;;;;;;;4854347;29;20044;-79
2023/03/04 04:14:32;;;;;;;14.93;1.55;;;;;;;;;;4853732;29;20052;-78
2023/03/04 04:16:59;;;;;;;20.27;2.50;;;;;;;;;;4846679;29;20091;-78
2023/03/04 04:19:25;;;;;;;13.93;1.55;;;;;;;;;;4844608;29;20049;-78
2023/03/04 04:21:53;;;;;;;9.90;1.25;;;;;;;;;;4834454;29;20048;-78
2023/03/04 04:24:19;;;;;;;14.80;3.75;;;;;;;;;;4817313;29;20056;-78
2023/03/04 04:26:46;;;;;;;9.80;2.00;;;;;;;;;;4848962;29;20052;-78
2023/03/04 04:29:13;;;;;;;11.85;1.80;;;;;;;;;;4844771;29;20060;-78
2023/03/04 04:31:40;;;;;;;13.05;2.10;;;;;;;;;;4835851;29;20060;-77
2023/03/04 04:34:06;;;;;;;8.88;1.80;;;;;;;;;;4852375;29;20065;-77
2023/03/04 04:36:32;;;;;;;19.42;3.13;;;;;;;;;;4850622;29;21628;-76
2023/03/04 04:39:00;;;;;;;14.50;2.17;;;;;;;;;;4873841;29;20108;-78
2023/03/04 04:41:31;;;;;;;18.77;2.60;;;;;;;;;;4858259;29;20056;-78
2023/03/04 04:43:57;;;;;;;12.05;2.17;;;;;;;;;;4856723;29;20053;-77
2023/03/04 04:46:24;;;;;;;13.52;1.95;;;;;;;;;;4834867;29;20048;-78
2023/03/04 04:49:06;;;;;;;14.80;2.15;;;;;;;;;;4863047;29;20160;-78
2023/03/04 04:55:19;;;;;;;17.05;2.17;;;;;;;;;;4832598;29;20053;-77
2023/03/04 04:57:55;;;;;;;10.55;2.13;;;;;;;;;;4836122;29;20063;-77
2023/03/04 05:00:29;;;;;;;14.68;1.83;;;;;;;;;;4850201;29;20056;-78
2023/03/04 05:06:41;;;;;;;8.45;1.58;;;;;;;;;;4829006;29;20095;-77
2023/03/04 05:09:18;;;;;;;6.68;1.25;;;;;;;;;;4853231;29;20063;-77
2023/03/04 05:11:44;;;;;;;10.98;1.45;;;;;;;;;;4838620;29;20049;-77
2023/03/04 05:14:16;;;;;;;12.80;1.60;;;;;;;;;;4852639;29;21098;-77
2023/03/04 05:16:50;;;;;;;13.45;1.77;;;;;;;;;;4852279;29;20048;-78
2023/03/04 05:19:25;;;;;;;12.88;2.53;;;;;;;;;;4838678;29;20053;-77
2023/03/04 05:22:03;;;;;;;13.82;1.85;;;;;;;;;;4852094;29;22033;-78
2023/03/04 05:24:33;;;;;;;9.07;1.20;;;;;;;;;;4846239;29;20051;-78
2023/03/04 05:27:19;;;;;;;14.70;2.15;;;;;;;;;;4837508;29;20404;-78
2023/03/04 05:29:45;;;;;;;19.98;2.00;;;;;;;;;;4820437;29;21585;-78
2023/03/04 05:32:19;;;;;;;16.08;2.03;;;;;;;;;;4816212;29;20052;-77
2023/03/04 05:34:45;;;;;;;14.45;2.00;;;;;;;;;;4850502;29;20049;-78
2023/03/04 05:37:17;;;;;;;30.65;2.58;;;;;;;;;;4835454;29;20052;-77
2023/03/04 05:39:43;;;;;;;17.65;2.28;;;;;;;;;;4849970;29;20044;-78
2023/03/04 05:42:10;;;;;;;14.02;1.80;;;;;;;;;;4856458;29;20046;-79
2023/03/04 05:44:36;;;;;;;15.32;2.90;;;;;;;;;;4843567;29;20139;-78
2023/03/04 05:47:02;;;;;;;21.92;3.15;;;;;;;;;;4824986;29;20037;-78
2023/03/04 05:49:28;;;;;;;13.90;2.10;;;;;;;;;;4843950;29;20052;-79
2023/03/04 05:51:54;;;;;;;11.15;2.00;;;;;;;;;;4854823;29;20153;-79
2023/03/04 05:54:20;;;;;;;12.73;1.98;;;;;;;;;;4855163;29;20268;-78
2023/03/04 05:56:46;;;;;;;16.73;2.38;;;;;;;;;;4854423;29;20049;-79
2023/03/04 05:59:12;;;;;;;11.50;1.77;;;;;;;;;;4833546;29;20049;-78
2023/03/04 06:01:39;;;;;;;13.70;2.08;;;;;;;;;;4830971;29;20051;-78
2023/03/04 06:04:05;;;;;;;12.90;1.88;;;;;;;;;;4856804;29;20052;-78
2023/03/04 06:06:31;;;;;;;16.20;1.60;;;;;;;;;;4846057;29;20140;-78
2023/03/04 06:08:57;;;;;;;8.18;1.48;;;;;;;;;;4862410;29;20045;-78
2023/03/04 06:11:24;;;;;;;16.67;2.28;;;;;;;;;;4858706;29;20047;-77
2023/03/04 06:13:50;;;;;;;20.52;2.08;;;;;;;;;;4866610;29;22099;-77
2023/03/04 06:16:16;;;;;;;9.85;1.60;;;;;;;;;;4836129;29;20057;-77
2023/03/04 06:18:42;;;;;;;13.30;1.98;;;;;;;;;;4858766;29;20055;-78
2023/03/04 06:21:08;;;;;;;16.42;2.22;;;;;;;;;;4852160;29;20239;-77
2023/03/04 06:23:34;;;;;;;14.63;1.88;;;;;;;;;;4848513;29;20048;-78
2023/03/04 06:26:01;;;;;;;16.88;2.40;;;;;;;;;;4838715;29;20079;-77
2023/03/04 06:28:27;;;;;;;20.55;2.78;;;;;;;;;;4861044;29;20072;-77
2023/03/04 06:30:54;;;;;;;18.50;2.53;;;;;;;;;;4864265;29;20096;-77
2023/03/04 06:33:23;;;;;;;13.43;1.73;;;;;;;;;;4847173;29;20131;-77
2023/03/04 06:36:00;;;;;;;15.23;2.33;;;;;;;;;;4825553;29;20501;-78
2023/03/04 06:38:26;;;;;;;18.33;2.30;;;;;;;;;;4858053;29;20048;-79
2023/03/04 06:40:53;;;;;;;15.23;2.08;;;;;;;;;;4855591;29;20045;-78
2023/03/04 06:43:19;;;;;;;11.75;2.45;;;;;;;;;;4857819;29;20066;-78
2023/03/04 06:45:45;;;;;;;19.45;2.17;;;;;;;;;;4856029;29;20068;-78
2023/03/04 06:48:11;;;;;;;13.85;2.65;;;;;;;;;;4839224;29;20045;-79
2023/03/04 06:50:39;;;;;;;19.45;3.60;;;;;;;;;;4856106;29;20492;-78
2023/03/04 06:53:05;;;;;;;15.90;2.72;;;;;;;;;;4843945;29;20087;-78
2023/03/04 06:55:31;;;;;;;20.63;2.30;;;;;;;;;;4851645;29;20049;-78
2023/03/04 06:57:57;;;;;;;13.23;2.20;;;;;;;;;;4835677;29;20106;-78
2023/03/04 07:00:23;;;;;;;20.67;3.53;;;;;;;;;;4849766;29;20132;-78
2023/03/04 07:02:50;;;;;;;16.73;2.55;;;;;;;;;;4845714;29;20048;-78
2023/03/04 07:05:16;;;;;;;29.17;3.03;;;;;;;;;;4831050;29;20077;-78
2023/03/04 07:07:42;;;;;;;16.08;3.30;;;;;;;;;;4852733;29;20049;-78
2023/03/04 07:10:09;;;;;;;19.00;3.13;;;;;;;;;;4827487;29;20045;-78
2023/03/04 07:12:35;;;;;;;12.30;3.05;;;;;;;;;;4836711;29;20075;-77
2023/03/04 07:15:02;;;;;;;23.85;3.20;;;;;;;;;;4835343;29;20143;-78
2023/03/04 07:17:28;;;;;;;20.83;3.08;;;;;;;;;;4848189;29;20167;-78
2023/03/04 07:19:54;;;;;;;21.77;4.03;;;;;;;;;;4841413;29;20705;-78
2023/03/04 07:22:20;;;;;;;21.77;2.97;;;;;;;;;;4852302;29;20112;-78
2023/03/04 07:24:46;;;;;;;25.45;3.97;;;;;;;;;;4836796;29;20112;-79
2023/03/04 07:27:12;;;;;;;23.58;3.38;;;;;;;;;;4851883;29;20378;-79
2023/03/04 07:29:38;;;;;;;17.63;3.47;;;;;;;;;;4830157;29;20123;-80
2023/03/04 07:32:08;;;;;;;28.80;3.38;;;;;;;;;;4854356;29;20139;-77
2023/03/04 07:34:34;;;;;;;24.50;4.13;;;;;;;;;;4856896;29;20051;-79
2023/03/04 07:37:04;;;;;;;26.70;3.25;;;;;;;;;;4822501;29;20044;-79
2023/03/04 07:39:30;;;;;;;20.17;3.38;;;;;;;;;;4851189;29;20044;-80
2023/03/04 07:41:58;;;;;;;29.90;3.83;;;;;;;;;;4850138;29;20049;-78
2023/03/04 07:44:25;;;;;;;21.33;3.22;;;;;;;;;;4847788;29;20417;-78
2023/03/04 07:46:51;;;;;;;25.10;4.55;;;;;;;;;;4834929;29;20173;-79
2023/03/04 07:49:17;;;;;;;14.35;2.83;;;;;;;;;;4846154;29;20041;-78
2023/03/04 07:51:43;;;;;;;20.63;3.35;;;;;;;;;;4838410;29;20045;-79
2023/03/04 07:54:09;;;;;;;16.88;3.35;;;;;;;;;;4824480;29;20100;-79
2023/03/04 07:56:35;;;;;;;21.08;3.33;;;;;;;;;;4847934;29;20044;-79
2023/03/04 07:59:02;;;;;;;23.10;2.55;;;;;;;;;;4852276;29;20156;-79
2023/03/04 08:01:35;;;;;;;21.45;3.10;;;;;;;;;;4853059;29;20060;-80
2023/03/04 08:04:02;;;;;;;17.67;2.80;;;;;;;;;;4852667;29;20412;-77
2023/03/04 08:06:28;;;;;;;15.45;3.03;;;;;;;;;;4849167;29;20044;-78
2023/03/04 08:08:58;;;;;;;25.25;3.25;;;;;;;;;;4849899;29;20354;-78
2023/03/04 08:11:24;;;;;;;20.73;3.38;;;;;;;;;;4857171;29;20079;-79
2023/03/04 08:13:52;;;;;;;18.13;3.22;;;;;;;;;;4828889;29;20101;-78
2023/03/04 08:16:22;;;;;;;22.58;3.70;;;;;;;;;;4850931;29;20088;-79
2023/03/04 08:18:55;;;;;;;17.20;3.53;;;;;;;;;;4849279;29;20050;-79
2023/03/04 08:21:23;;;;;;;26.60;3.35;;;;;;;;;;4840828;29;20044;-79
2023/03/04 08:23:50;;;;;;;21.80;4.50;;;;;;;;;;4846754;29;20049;-78
2023/03/04 08:26:20;;;;;;;25.20;3.50;;;;;;;;;;4849746;29;20051;-79
2023/03/04 08:28:47;;;;;;;30.50;4.82;;;;;;;;;;4848802;29;20041;-79
2023/03/04 08:31:13;;;;;;;33.53;4.28;;;;;;;;;;4848773;29;20048;-79
2023/03/04 08:33:39;;;;;;;21.52;3.38;;;;;;;;;;4848621;29;20048;-79
2023/03/04 08:36:05;;;;;;;29.05;3.80;;;;;;;;;;4841141;29;20049;-79
2023/03/04 08:38:32;;;;;;;26.17;3.95;;;;;;;;;;4835501;29;20061;-78
2023/03/04 08:40:58;;;;;;;28.40;4.03;;;;;;;;;;4836892;29;20044;-79
2023/03/04 08:43:25;;;;;;;21.23;3.60;;;;;;;;;;4850609;29;20049;-79
2023/03/04 08:45:52;;;;;;;31.00;3.75;;;;;;;;;;4854289;29;20052;-80
2023/03/04 08:48:18;;;;;;;33.63;4.25;;;;;;;;;;4844312;29;20099;-80
2023/03/04 08:50:45;;;;;;;33.28;4.80;;;;;;;;;;4852487;29;21774;-79
2023/03/04 08:53:12;;;;;;;29.83;4.18;;;;;;;;;;4870122;29;20052;-80
2023/03/04 08:55:41;;;;;;;31.27;5.28;;;;;;;;;;4856391;29;21706;-80
2023/03/04 08:58:08;;;;;;;25.40;3.65;;;;;;;;;;4853456;29;20080;-79
2023/03/04 09:00:37;;;;;;;15.65;2.75;;;;;;;;;;4855853;29;20119;-79
2023/03/04 09:03:04;;;;;;;9.60;1.95;;;;;;;;;;4860053;29;20055;-80
2023/03/04 09:05:30;;;;;;;11.88;2.55;;;;;;;;;;4855217;29;20085;-79
2023/03/04 09:07:58;;;;;;;16.83;2.65;;;;;;;;;;4856228;29;20053;-79
2023/03/04 09:10:24;;;;;;;14.85;2.00;;;;;;;;;;4843736;29;20044;-79
2023/03/04 09:12:51;;;;;;;10.32;1.45;;;;;;;;;;4867768;29;20497;-79
2023/03/04 09:15:17;;;;;;;7.88;1.13;;;;;;;;;;4852592;29;20163;-79
2023/03/04 09:17:46;;;;;;;20.35;1.90;;;;;;;;;;4850479;29;20121;-80
2023/03/04 09:20:13;;;;;;;10.88;1.60;;;;;;;;;;4850809;29;20183;-80
2023/03/04 09:22:40;;;;;;;11.73;1.75;;;;;;;;;;4865018;29;20513;-80
2023/03/04 09:25:07;;;;;;;17.27;1.77;;;;;;;;;;4850552;29;20209;-79
2023/03/04 09:27:34;;;;;;;10.35;1.83;;;;;;;;;;4851193;29;20048;-78
2023/03/04 09:30:00;;;;;;;17.25;3.15;;;;;;;;;;4868421;29;20045;-77
2023/03/04 09:32:26;;;;;;;9.95;1.40;;;;;;;;;;4853601;29;20067;-78
2023/03/04 09:34:55;;;;;;;6.88;1.63;;;;;;;;;;4823875;29;20545;-77
2023/03/04 09:37:21;;;;;;;9.73;1.83;;;;;;;;;;4846322;29;20045;-76
2023/03/04 09:39:49;;;;;;;15.52;1.80;;;;;;;;;;4857211;29;20075;-76
2023/03/04 09:42:22;;;;;;;12.80;1.60;;;;;;;;;;4842100;29;20048;-75
2023/03/04 09:44:49;;;;;;;15.05;2.67;;;;;;;;;;4855006;29;20222;-76
2023/03/04 09:47:16;;;;;;;22.23;2.40;;;;;;;;;;4855572;29;20044;-76
2023/03/04 09:49:44;;;;;;;12.00;2.55;;;;;;;;;;4870995;29;20133;-75
2023/03/04 09:52:30;;;;;;;17.67;2.10;;;;;;;;;;4856054;29;20478;-76
2023/03/04 09:55:15;;;;;;;21.55;3.63;;;;;;;;;;4859389;29;20155;-77
2023/03/04 09:57:44;;;;;;;29.23;3.83;;;;;;;;;;4858399;29;20052;-76
2023/03/04 10:00:19;;;;;;;18.67;3.35;;;;;;;;;;4840419;29;20109;-76
2023/03/04 10:03:03;;;;;;;27.50;3.30;;;;;;;;;;4855295;29;20079;-76
2023/03/04 10:05:30;;;;;;;15.73;2.80;;;;;;;;;;4841335;29;21133;-77
2023/03/04 10:07:58;;;;;;;17.13;2.83;;;;;;;;;;4856302;29;20553;-75
2023/03/04 10:10:33;;;;;;;34.08;3.25;;;;;;;;;;4847650;29;20036;-76
2023/03/04 10:13:00;;;;;;;13.38;3.08;;;;;;;;;;4857389;29;20060;-76
2023/03/04 10:15:45;;;;;;;18.75;3.00;;;;;;;;;;4856285;29;20168;-75
2023/03/04 10:18:21;;;;;;;18.85;3.33;;;;;;;;;;4860312;29;20478;-75
2023/03/04 10:20:53;;;;;;;15.15;2.63;;;;;;;;;;4840153;29;20060;-75
2023/03/04 10:23:25;;;;;;;17.80;3.13;;;;;;;;;;4841054;29;20084;-76
2023/03/04 10:25:53;;;;;;;21.63;3.63;;;;;;;;;;4858698;29;20049;-76
2023/03/04 10:28:33;;;;;;;18.42;2.53;;;;;;;;;;4845531;29;20044;-75
2023/03/04 10:31:01;;;;;;;17.50;2.97;;;;;;;;;;4856058;29;22004;-75
2023/03/04 10:33:29;;;;;;;15.15;2.70;;;;;;;;;;4859493;29;20087;-76
2023/03/04 10:36:00;;;;;;;19.02;3.17;;;;;;;;;;4844149;29;20048;-76
2023/03/04 10:38:28;;;;;;;18.50;2.90;;;;;;;;;;4848813;29;20125;-76
2023/03/04 10:40:54;;;;;;;17.10;2.75;;;;;;;;;;4857272;29;20053;-77
2023/03/04 10:43:21;;;;;;;16.40;3.08;;;;;;;;;;4858068;29;20052;-76
2023/03/04 10:45:48;;;;;;;19.30;2.75;;;;;;;;;;4858904;29;20049;-76
2023/03/04 10:48:19;;;;;;;8.68;2.05;;;;;;;;;;4857586;29;20060;-77
2023/03/04 10:50:45;;;;;;;11.63;2.55;;;;;;;;;;4859606;29;20467;-76
2023/03/04 10:53:44;;;;;;;17.27;2.60;;;;;;;;;;4862603;29;20049;-76
2023/03/04 10:56:30;;;;;;;19.35;3.90;;;;;;;;;;4787349;29;20123;-75
2023/03/04 10:59:15;;;;;;;17.45;4.53;;;;;;;;;;4839094;29;20052;-76
2023/03/04 11:01:41;;;;;;;18.42;3.42;;;;;;;;;;4855276;29;21734;-75
2023/03/04 11:04:17;;;;;;;19.10;3.50;;;;;;;;;;4854448;29;20418;-76
2023/03/04 11:06:43;;;;;;;27.73;3.83;;;;;;;;;;4857436;29;20052;-76
2023/03/04 11:09:21;;;;;;;16.08;3.22;;;;;;;;;;4856562;29;20074;-76
2023/03/04 11:11:49;;;;;;;13.95;2.85;;;;;;;;;;4852737;29;20053;-75
2023/03/04 11:14:29;;;;;;;15.60;2.33;;;;;;;;;;4868362;29;20063;-76
2023/03/04 11:17:01;;;;;;;17.00;3.25;;;;;;;;;;4853974;29;20135;-76
2023/03/04 11:19:31;;;;;;;21.02;3.28;;;;;;;;;;4854208;29;20088;-76
2023/03/04 11:21:58;;;;;;;10.02;2.30;;;;;;;;;;4853548;29;20083;-76
2023/03/04 11:24:26;;;;;;;16.05;2.67;;;;;;;;;;4854807;29;20130;-76
2023/03/04 11:26:59;;;;;;;11.77;2.30;;;;;;;;;;4844932;29;20044;-76
2023/03/04 11:29:31;;;;;;;9.15;2.42;;;;;;;;;;4837696;29;20043;-76
2023/03/04 11:32:00;;;;;;;13.52;2.40;;;;;;;;;;4868759;29;20808;-75
2023/03/04 11:34:45;;;;;;;14.10;2.65;;;;;;;;;;4855001;29;20056;-75
2023/03/04 11:37:14;;;;;;;18.80;2.80;;;;;;;;;;4854882;29;20060;-75
2023/03/04 11:39:46;;;;;;;19.27;2.60;;;;;;;;;;4856496;29;20060;-75
2023/03/04 11:42:32;;;;;;;13.18;3.13;;;;;;;;;;4846329;29;20924;-75
2023/03/04 11:44:58;;;;;;;22.08;3.13;;;;;;;;;;4852190;29;20746;-76
2023/03/04 11:47:34;;;;;;;20.05;3.88;;;;;;;;;;4852154;29;20045;-76
2023/03/04 11:50:10;;;;;;;22.02;3.33;;;;;;;;;;4852961;29;20060;-71
2023/03/04 11:52:48;;;;;;;18.17;3.70;;;;;;;;;;4868919;29;20082;-71
2023/03/04 11:55:30;;;;;;;25.13;4.65;;;;;;;;;;4852144;29;20407;-70
2023/03/04 11:58:08;;;;;;;16.30;2.60;;;;;;;;;;4867814;29;20049;-71
2023/03/04 12:00:43;;;;;;;19.73;3.67;;;;;;;;;;4837391;29;20049;-71
2023/03/04 12:03:26;;;;;;;26.90;3.97;;;;;;;;;;4866978;29;20135;-70
2023/03/04 12:05:59;;;;;;;24.90;4.75;;;;;;;;;;4851595;29;20048;-70
2023/03/04 12:08:47;;;;;;;18.08;3.75;;;;;;;;;;4866562;29;20496;-70
2023/03/04 12:11:17;;;;;;;15.82;2.83;;;;;;;;;;4853029;29;20045;-71
2023/03/04 12:13:52;;;;;;;16.15;3.15;;;;;;;;;;4846646;29;20072;-69
2023/03/04 12:16:33;;;;;;;14.73;2.70;;;;;;;;;;4850772;29;20056;-69
2023/03/04 12:18:59;;;;;;;13.00;2.60;;;;;;;;;;4860895;29;20069;-69
2023/03/04 12:21:25;;;;;;;21.75;3.33;;;;;;;;;;4858630;29;20056;-69
2023/03/04 12:23:51;;;;;;;15.93;2.58;;;;;;;;;;4845949;29;20041;-70
2023/03/04 12:26:24;;;;;;;17.73;3.60;;;;;;;;;;4846682;29;20643;-69
2023/03/04 12:28:53;;;;;;;27.05;3.65;;;;;;;;;;4848427;29;20517;-69
2023/03/04 12:31:19;;;;;;;31.13;4.28;;;;;;;;;;4847580;29;20715;-69
2023/03/04 12:33:53;;;;;;;27.05;3.90;;;;;;;;;;4859833;29;20417;-69
2023/03/04 12:36:26;;;;;;;22.48;3.97;;;;;;;;;;4858530;29;20055;-69
2023/03/04 12:38:59;;;;;;;15.18;3.30;;;;;;;;;;4861413;29;21944;-69
2023/03/04 12:41:36;;;;;;;17.63;3.30;;;;;;;;;;4863448;29;20045;-69
2023/03/04 12:44:02;;;;;;;22.88;3.78;;;;;;;;;;4865179;29;20048;-70
2023/03/04 12:46:32;;;;;;;31.85;4.13;;;;;;;;;;4850638;29;20051;-69
2023/03/04 12:49:07;;;;;;;23.77;3.92;;;;;;;;;;4852926;29;20060;-69
2023/03/04 12:51:46;;;;;;;25.00;3.55;;;;;;;;;;4844705;29;20065;-70
2023/03/04 12:54:30;;;;;;;24.55;4.00;;;;;;;;;;4846939;29;20056;-69
2023/03/04 12:57:15;;;;;;;15.85;3.58;;;;;;;;;;4866357;29;20048;-69
2023/03/04 12:59:47;;;;;;;27.08;4.38;;;;;;;;;;4870130;29;20052;-71
2023/03/04 13:02:25;;;;;;;21.00;3.65;;;;;;;;;;4869594;29;20057;-69
2023/03/04 13:05:10;;;;;;;23.08;3.72;;;;;;;;;;4869983;29;20041;-69
2023/03/04 13:07:50;;;;;;;20.23;3.45;;;;;;;;;;4849097;29;20048;-70
2023/03/04 13:10:17;;;;;;;16.95;2.38;;;;;;;;;;4866604;29;20084;-69
2023/03/04 13:12:51;;;;;;;14.82;2.67;;;;;;;;;;4849753;29;20085;-69
2023/03/04 13:15:18;;;;;;;14.65;2.30;;;;;;;;;;4866383;29;20052;-69
2023/03/04 13:17:44;;;;;;;15.18;2.80;;;;;;;;;;4850021;29;20147;-70
2023/03/04 13:20:29;;;;;;;12.68;2.30;;;;;;;;;;4850189;29;20135;-69
2023/03/04 13:23:01;;;;;;;12.90;2.38;;;;;;;;;;4866358;29;20059;-69
2023/03/04 13:25:29;;;;;;;20.58;2.90;;;;;;;;;;4865328;29;20243;-69
2023/03/04 13:27:58;;;;;;;19.75;3.25;;;;;;;;;;4865374;29;20033;-69
2023/03/04 13:30:31;;;;;;;11.55;2.72;;;;;;;;;;4850712;29;20041;-69
2023/03/04 13:33:09;;;;;;;11.77;2.35;;;;;;;;;;4864807;29;20450;-69
2023/03/04 13:35:54;;;;;;;11.68;1.98;;;;;;;;;;4849230;29;20111;-69
2023/03/04 13:38:26;;;;;;;8.65;2.22;;;;;;;;;;4857632;29;20061;-69
2023/03/04 13:41:07;;;;;;;8.98;1.90;;;;;;;;;;4829478;29;20143;-69
2023/03/04 13:43:42;;;;;;;7.13;1.85;;;;;;;;;;4861644;29;20041;-69
2023/03/04 13:46:18;;;;;;;17.33;2.85;;;;;;;;;;4846090;29;20815;-69
2023/03/04 13:48:49;;;;;;;13.90;2.20;;;;;;;;;;4862131;29;20044;-69
2023/03/04 13:51:36;;;;;;;8.30;1.67;;;;;;;;;;4864279;29;20131;-69
2023/03/04 13:54:03;;;;;;;16.33;2.25;;;;;;;;;;4864382;29;20517;-69
2023/03/04 13:56:34;;;;;;;12.98;2.78;;;;;;;;;;4845690;29;20158;-69
2023/03/04 13:59:20;;;;;;;14.05;2.75;;;;;;;;;;4848954;29;20621;-69
2023/03/04 14:01:46;;;;;;;17.00;3.70;;;;;;;;;;4806416;29;20837;-69
2023/03/04 14:04:19;;;;;;;12.48;2.65;;;;;;;;;;4848657;29;20060;-69
2023/03/04 14:06:47;;;;;;;14.63;2.35;;;;;;;;;;4866646;29;20083;-69
2023/03/04 14:09:15;;;;;;;13.32;2.05;;;;;;;;;;4849769;29;20049;-68
2023/03/04 14:11:42;;;;;;;14.23;2.53;;;;;;;;;;4865234;29;20455;-69
2023/03/04 14:14:16;;;;;;;18.55;3.03;;;;;;;;;;4849603;29;20056;-68
2023/03/04 14:16:42;;;;;;;;;;;;;;;;;;4848391;29;20606;-68
2023/03/04 14:19:14;;;;;;;19.50;2.50;;;;;;;;;;4849661;29;19928;-69
2023/03/04 14:21:44;;;;;;;14.20;2.78;;;;;;;;;;4850364;29;20057;-70
2023/03/04 14:24:14;;;;;;;15.20;2.10;;;;;;;;;;4851059;29;22077;-70
2023/03/04 14:26:40;;;;;;;19.90;3.03;;;;;;;;;;4864485;29;20777;-70
2023/03/04 14:29:23;;;;;;;17.95;3.38;;;;;;;;;;4866482;29;20116;-69
2023/03/04 14:31:50;;;;;;;19.83;3.38;;;;;;;;;;4863586;29;20045;-70
2023/03/04 14:34:22;;;;;;;19.58;2.80;;;;;;;;;;4849088;29;20136;-69
2023/03/04 14:36:48;;;;;;;21.95;2.80;;;;;;;;;;4865134;29;20550;-69
2023/03/04 14:39:18;;;;;;;18.40;2.65;;;;;;;;;;4865736;29;20052;-70
2023/03/04 14:41:45;;;;;;;23.73;3.47;;;;;;;;;;4864686;29;20493;-70
2023/03/04 14:44:34;;;;;;;25.30;3.78;;;;;;;;;;4848149;29;20051;-69
2023/03/04 14:47:06;;;;;;;21.60;2.97;;;;;;;;;;4863541;29;20520;-69
2023/03/04 14:49:33;;;;;;;19.20;2.88;;;;;;;;;;4857270;29;20041;-69
2023/03/04 14:51:59;;;;;;;14.38;2.50;;;;;;;;;;4861397;29;20048;-68